sensor_id;sensor_type;location;lat;lon;timestamp;pressure;altitude;pressure_sealevel;temperature;humidity
2339;BME280;1180;51.438;6.978;2023-01-04T00:01:07;100843.13;;;10.87;77.53
2339;BME280;1180;51.438;6.978;2023-01-04T00:03:33;100834.25;;;10.76;77.78
2339;BME280;1180;51.438;6.978;2023-01-04T00:06:00;100839.22;;;10.79;78.45
2339;BME280;1180;51.438;6.978;2023-01-04T00:08:26;100837.81;;;10.90;77.50
2339;BME280;1180;51.438;6.978;2023-01-04T00:10:52;100821.72;;;11.04;76.79
2339;BME280;1180;51.438;6.978;2023-01-04T00:13:17;100824.81;;;10.93;77.27
2339;BME280;1180;51.438;6.978;2023-01-04T00:15:43;100815.25;;;10.96;77.12
2339;BME280;1180;51.438;6.978;2023-01-04T00:18:08;100807.53;;;10.96;76.93
2339;BME280;1180;51.438;6.978;2023-01-04T00:20:34;100809.72;;;11.04;76.87
2339;BME280;1180;51.438;6.978;2023-01-04T00:22:59;100807.97;;;11.05;76.93
2339;BME280;1180;51.438;6.978;2023-01-04T00:25:24;100798.25;;;11.10;76.83
2339;BME280;1180;51.438;6.978;2023-01-04T00:27:50;100799.13;;;11.10;76.80
2339;BME280;1180;51.438;6.978;2023-01-04T00:30:16;100794.56;;;11.16;76.55
2339;BME280;1180;51.438;6.978;2023-01-04T00:32:42;100782.47;;;11.18;76.30
2339;BME280;1180;51.438;6.978;2023-01-04T00:35:08;100791.00;;;11.18;76.48
2339;BME280;1180;51.438;6.978;2023-01-04T00:37:34;100769.03;;;11.29;75.94
2339;BME280;1180;51.438;6.978;2023-01-04T00:39:59;100774.91;;;11.15;76.53
2339;BME280;1180;51.438;6.978;2023-01-04T00:42:24;100772.75;;;11.07;78.09
2339;BME280;1180;51.438;6.978;2023-01-04T00:44:50;100764.75;;;11.13;78.31
2339;BME280;1180;51.438;6.978;2023-01-04T00:47:15;100757.84;;;11.30;78.61
2339;BME280;1180;51.438;6.978;2023-01-04T00:49:40;100744.75;;;11.18;79.94
2339;BME280;1180;51.438;6.978;2023-01-04T00:52:06;100748.06;;;11.04;81.36
2339;BME280;1180;51.438;6.978;2023-01-04T00:54:32;100742.84;;;11.06;81.79
2339;BME280;1180;51.438;6.978;2023-01-04T00:56:57;100736.97;;;11.04;82.37
2339;BME280;1180;51.438;6.978;2023-01-04T00:59:22;100740.41;;;10.87;83.60
2339;BME280;1180;51.438;6.978;2023-01-04T01:01:49;100742.19;;;11.02;83.96
2339;BME280;1180;51.438;6.978;2023-01-04T01:04:17;100725.88;;;11.03;83.59
2339;BME280;1180;51.438;6.978;2023-01-04T01:06:43;100722.88;;;10.95;84.36
2339;BME280;1180;51.438;6.978;2023-01-04T01:09:08;100720.81;;;11.02;84.85
2339;BME280;1180;51.438;6.978;2023-01-04T01:11:34;100711.84;;;11.09;85.17
2339;BME280;1180;51.438;6.978;2023-01-04T01:14:04;100711.84;;;10.93;86.56
2339;BME280;1180;51.438;6.978;2023-01-04T01:16:30;100703.50;;;10.89;87.87
2339;BME280;1180;51.438;6.978;2023-01-04T01:18:55;100690.25;;;10.97;87.17
2339;BME280;1180;51.438;6.978;2023-01-04T01:21:23;100693.41;;;11.02;87.39
2339;BME280;1180;51.438;6.978;2023-01-04T01:23:49;100683.13;;;10.86;88.71
2339;BME280;1180;51.438;6.978;2023-01-04T01:26:17;100681.47;;;10.85;89.10
2339;BME280;1180;51.438;6.978;2023-01-04T01:28:43;100677.41;;;10.81;90.02
2339;BME280;1180;51.438;6.978;2023-01-04T01:31:11;100677.97;;;10.86;89.76
2339;BME280;1180;51.438;6.978;2023-01-04T01:33:39;100674.66;;;10.84;90.20
2339;BME280;1180;51.438;6.978;2023-01-04T01:36:05;100665.31;;;10.67;91.58
2339;BME280;1180;51.438;6.978;2023-01-04T01:38:31;100663.06;;;10.61;92.58
2339;BME280;1180;51.438;6.978;2023-01-04T01:40:56;100671.00;;;10.72;92.77
2339;BME280;1180;51.438;6.978;2023-01-04T01:43:44;100669.19;;;10.74;91.97
2339;BME280;1180;51.438;6.978;2023-01-04T01:46:08;100664.13;;;10.73;92.37
2339;BME280;1180;51.438;6.978;2023-01-04T01:48:34;100659.91;;;10.72;93.44
2339;BME280;1180;51.438;6.978;2023-01-04T01:51:02;100662.56;;;10.70;94.16
2339;BME280;1180;51.438;6.978;2023-01-04T01:53:31;100653.44;;;10.64;94.11
2339;BME280;1180;51.438;6.978;2023-01-04T01:55:58;100653.84;;;10.57;95.12
2339;BME280;1180;51.438;6.978;2023-01-04T01:58:32;100654.88;;;10.70;94.55
2339;BME280;1180;51.438;6.978;2023-01-04T02:00:58;100655.44;;;10.75;94.66
2339;BME280;1180;51.438;6.978;2023-01-04T02:03:31;100660.00;;;10.70;95.88
2339;BME280;1180;51.438;6.978;2023-01-04T02:05:57;100661.66;;;10.71;95.33
2339;BME280;1180;51.438;6.978;2023-01-04T02:08:25;100658.81;;;10.76;95.76
2339;BME280;1180;51.438;6.978;2023-01-04T02:10:51;100659.59;;;10.78;95.66
2339;BME280;1180;51.438;6.978;2023-01-04T02:13:20;100655.09;;;10.81;95.86
2339;BME280;1180;51.438;6.978;2023-01-04T02:16:09;100644.59;;;10.70;96.70
2339;BME280;1180;51.438;6.978;2023-01-04T02:18:44;100646.59;;;10.65;97.74
2339;BME280;1180;51.438;6.978;2023-01-04T02:21:17;100643.69;;;10.71;98.33
2339;BME280;1180;51.438;6.978;2023-01-04T02:24:16;100628.28;;;10.71;98.29
2339;BME280;1180;51.438;6.978;2023-01-04T02:29:41;100627.44;;;10.71;98.78
2339;BME280;1180;51.438;6.978;2023-01-04T02:40:43;100601.28;;;10.48;100.00
2339;BME280;1180;51.438;6.978;2023-01-04T02:43:19;100611.81;;;10.59;100.00
2339;BME280;1180;51.438;6.978;2023-01-04T02:46:14;100593.75;;;10.45;100.00
2339;BME280;1180;51.438;6.978;2023-01-04T02:48:41;100597.31;;;10.42;100.00
2339;BME280;1180;51.438;6.978;2023-01-04T02:51:30;100612.16;;;10.35;100.00
2339;BME280;1180;51.438;6.978;2023-01-04T02:53:59;100592.53;;;10.34;100.00
2339;BME280;1180;51.438;6.978;2023-01-04T02:56:35;100593.91;;;10.58;100.00
2339;BME280;1180;51.438;6.978;2023-01-04T02:59:31;100592.88;;;10.62;100.00
2339;BME280;1180;51.438;6.978;2023-01-04T03:08:18;100590.75;;;10.52;100.00
2339;BME280;1180;51.438;6.978;2023-01-04T03:10:55;100587.88;;;10.59;100.00
2339;BME280;1180;51.438;6.978;2023-01-04T03:13:30;100586.38;;;10.71;100.00
2339;BME280;1180;51.438;6.978;2023-01-04T03:16:04;100588.88;;;10.72;100.00
2339;BME280;1180;51.438;6.978;2023-01-04T03:18:37;100576.03;;;10.72;100.00
2339;BME280;1180;51.438;6.978;2023-01-04T03:21:06;100570.56;;;10.78;100.00
2339;BME280;1180;51.438;6.978;2023-01-04T03:23:35;100567.47;;;10.88;100.00
2339;BME280;1180;51.438;6.978;2023-01-04T03:26:24;100561.34;;;10.90;100.00
2339;BME280;1180;51.438;6.978;2023-01-04T03:29:16;100551.19;;;10.73;100.00
2339;BME280;1180;51.438;6.978;2023-01-04T03:32:07;100549.50;;;10.88;100.00
2339;BME280;1180;51.438;6.978;2023-01-04T03:34:54;100550.25;;;10.90;100.00
2339;BME280;1180;51.438;6.978;2023-01-04T03:37:53;100533.50;;;10.98;100.00
2339;BME280;1180;51.438;6.978;2023-01-04T03:40:47;100545.25;;;11.03;100.00
2339;BME280;1180;51.438;6.978;2023-01-04T03:43:44;100539.09;;;11.21;100.00
2339;BME280;1180;51.438;6.978;2023-01-04T03:46:46;100535.94;;;11.16;100.00
2339;BME280;1180;51.438;6.978;2023-01-04T03:49:51;100540.34;;;11.14;100.00
2339;BME280;1180;51.438;6.978;2023-01-04T03:52:23;100544.28;;;11.20;100.00
2339;BME280;1180;51.438;6.978;2023-01-04T03:54:51;100535.25;;;11.29;100.00
2339;BME280;1180;51.438;6.978;2023-01-04T03:57:19;100526.31;;;11.20;100.00
2339;BME280;1180;51.438;6.978;2023-01-04T03:59:49;100523.97;;;11.31;100.00
2339;BME280;1180;51.438;6.978;2023-01-04T04:02:21;100525.69;;;11.31;100.00
2339;BME280;1180;51.438;6.978;2023-01-04T04:04:47;100523.06;;;11.47;100.00
2339;BME280;1180;51.438;6.978;2023-01-04T04:07:31;100520.69;;;11.44;100.00
2339;BME280;1180;51.438;6.978;2023-01-04T04:10:15;100510.94;;;11.49;100.00
2339;BME280;1180;51.438;6.978;2023-01-04T04:12:40;100509.56;;;11.43;100.00
2339;BME280;1180;51.438;6.978;2023-01-04T04:15:06;100487.44;;;11.40;100.00
2339;BME280;1180;51.438;6.978;2023-01-04T04:17:32;100494.25;;;11.56;100.00
2339;BME280;1180;51.438;6.978;2023-01-04T04:19:57;100489.91;;;11.42;100.00
2339;BME280;1180;51.438;6.978;2023-01-04T04:22:22;100487.09;;;11.47;100.00
2339;BME280;1180;51.438;6.978;2023-01-04T04:24:48;100489.84;;;11.58;100.00
2339;BME280;1180;51.438;6.978;2023-01-04T04:27:13;100489.66;;;11.47;100.00
2339;BME280;1180;51.438;6.978;2023-01-04T04:29:38;100490.75;;;11.43;100.00
2339;BME280;1180;51.438;6.978;2023-01-04T04:32:04;100483.13;;;11.41;100.00
2339;BME280;1180;51.438;6.978;2023-01-04T04:34:29;100484.59;;;11.31;100.00
2339;BME280;1180;51.438;6.978;2023-01-04T04:36:55;100489.09;;;11.41;100.00
2339;BME280;1180;51.438;6.978;2023-01-04T04:39:20;100481.84;;;11.34;100.00
2339;BME280;1180;51.438;6.978;2023-01-04T04:41:45;100475.72;;;11.36;100.00
2339;BME280;1180;51.438;6.978;2023-01-04T04:44:16;100480.22;;;11.47;100.00
2339;BME280;1180;51.438;6.978;2023-01-04T04:46:42;100471.38;;;11.37;100.00
2339;BME280;1180;51.438;6.978;2023-01-04T04:49:08;100462.41;;;11.44;100.00
2339;BME280;1180;51.438;6.978;2023-01-04T04:51:34;100459.66;;;11.47;100.00
2339;BME280;1180;51.438;6.978;2023-01-04T04:54:00;100458.56;;;11.51;100.00
2339;BME280;1180;51.438;6.978;2023-01-04T04:56:25;100452.19;;;11.57;100.00
2339;BME280;1180;51.438;6.978;2023-01-04T04:58:51;100443.56;;;11.73;100.00
2339;BME280;1180;51.438;6.978;2023-01-04T05:01:17;100441.06;;;11.71;100.00
2339;BME280;1180;51.438;6.978;2023-01-04T05:03:42;100429.53;;;11.64;100.00
2339;BME280;1180;51.438;6.978;2023-01-04T05:06:08;100447.72;;;11.61;100.00
2339;BME280;1180;51.438;6.978;2023-01-04T05:08:33;100429.63;;;11.62;100.00
2339;BME280;1180;51.438;6.978;2023-01-04T05:10:58;100442.09;;;11.68;100.00
2339;BME280;1180;51.438;6.978;2023-01-04T05:13:24;100440.06;;;11.74;100.00
2339;BME280;1180;51.438;6.978;2023-01-04T05:15:51;100434.03;;;11.75;100.00
2339;BME280;1180;51.438;6.978;2023-01-04T05:18:20;100436.94;;;11.83;100.00
2339;BME280;1180;51.438;6.978;2023-01-04T05:20:46;100421.44;;;11.84;100.00
2339;BME280;1180;51.438;6.978;2023-01-04T05:23:13;100432.69;;;11.96;100.00
2339;BME280;1180;51.438;6.978;2023-01-04T05:25:38;100429.34;;;11.81;100.00
2339;BME280;1180;51.438;6.978;2023-01-04T05:28:04;100415.91;;;11.91;100.00
2339;BME280;1180;51.438;6.978;2023-01-04T05:30:30;100408.91;;;11.93;100.00
2339;BME280;1180;51.438;6.978;2023-01-04T05:33:14;100416.72;;;12.06;100.00
2339;BME280;1180;51.438;6.978;2023-01-04T05:35:39;100417.84;;;12.02;100.00
2339;BME280;1180;51.438;6.978;2023-01-04T05:38:05;100422.13;;;12.16;100.00
2339;BME280;1180;51.438;6.978;2023-01-04T05:40:30;100418.81;;;11.99;100.00
2339;BME280;1180;51.438;6.978;2023-01-04T05:42:56;100423.59;;;12.05;100.00
2339;BME280;1180;51.438;6.978;2023-01-04T05:45:21;100427.00;;;12.06;100.00
2339;BME280;1180;51.438;6.978;2023-01-04T05:47:50;100412.19;;;12.09;100.00
2339;BME280;1180;51.438;6.978;2023-01-04T05:50:17;100401.22;;;12.20;100.00
2339;BME280;1180;51.438;6.978;2023-01-04T05:52:42;100400.94;;;12.25;100.00
2339;BME280;1180;51.438;6.978;2023-01-04T05:55:08;100400.00;;;12.26;100.00
2339;BME280;1180;51.438;6.978;2023-01-04T05:57:34;100396.75;;;12.37;100.00
2339;BME280;1180;51.438;6.978;2023-01-04T06:00:00;100392.81;;;12.31;100.00
2339;BME280;1180;51.438;6.978;2023-01-04T06:02:28;100385.94;;;12.32;100.00
2339;BME280;1180;51.438;6.978;2023-01-04T06:04:54;100377.81;;;12.38;100.00
2339;BME280;1180;51.438;6.978;2023-01-04T06:07:20;100382.84;;;12.26;100.00
2339;BME280;1180;51.438;6.978;2023-01-04T06:09:45;100386.72;;;12.19;100.00
2339;BME280;1180;51.438;6.978;2023-01-04T06:12:11;100378.63;;;12.38;100.00
2339;BME280;1180;51.438;6.978;2023-01-04T06:14:37;100377.50;;;12.42;100.00
2339;BME280;1180;51.438;6.978;2023-01-04T06:17:03;100376.72;;;12.55;100.00
2339;BME280;1180;51.438;6.978;2023-01-04T06:19:28;100377.22;;;12.47;100.00
2339;BME280;1180;51.438;6.978;2023-01-04T06:21:53;100366.31;;;12.69;99.87
2339;BME280;1180;51.438;6.978;2023-01-04T06:24:19;100365.09;;;12.75;99.21
2339;BME280;1180;51.438;6.978;2023-01-04T06:26:45;100364.25;;;12.75;99.63
2339;BME280;1180;51.438;6.978;2023-01-04T06:29:10;100352.84;;;12.66;99.51
2339;BME280;1180;51.438;6.978;2023-01-04T06:31:36;100358.97;;;12.50;100.00
2339;BME280;1180;51.438;6.978;2023-01-04T06:34:01;100351.97;;;12.39;100.00
2339;BME280;1180;51.438;6.978;2023-01-04T06:36:27;100341.91;;;12.49;100.00
2339;BME280;1180;51.438;6.978;2023-01-04T06:38:53;100353.44;;;12.56;100.00
2339;BME280;1180;51.438;6.978;2023-01-04T06:41:18;100345.94;;;12.66;100.00
2339;BME280;1180;51.438;6.978;2023-01-04T06:43:44;100350.06;;;12.69;100.00
2339;BME280;1180;51.438;6.978;2023-01-04T06:46:09;100352.44;;;12.85;100.00
2339;BME280;1180;51.438;6.978;2023-01-04T06:48:34;100356.66;;;12.73;100.00
2339;BME280;1180;51.438;6.978;2023-01-04T06:51:00;100342.00;;;12.74;100.00
2339;BME280;1180;51.438;6.978;2023-01-04T06:53:25;100366.94;;;12.60;100.00
2339;BME280;1180;51.438;6.978;2023-01-04T06:55:50;100354.06;;;12.73;100.00
2339;BME280;1180;51.438;6.978;2023-01-04T06:58:16;100365.00;;;12.77;100.00
2339;BME280;1180;51.438;6.978;2023-01-04T07:00:41;100355.09;;;12.83;100.00
2339;BME280;1180;51.438;6.978;2023-01-04T07:03:07;100354.59;;;12.78;100.00
2339;BME280;1180;51.438;6.978;2023-01-04T07:05:32;100344.19;;;12.93;99.06
2339;BME280;1180;51.438;6.978;2023-01-04T07:08:04;100346.78;;;12.80;99.54
2339;BME280;1180;51.438;6.978;2023-01-04T07:10:29;100352.53;;;12.83;99.15
2339;BME280;1180;51.438;6.978;2023-01-04T07:12:54;100349.13;;;12.83;99.29
2339;BME280;1180;51.438;6.978;2023-01-04T07:15:20;100354.88;;;12.86;98.91
2339;BME280;1180;51.438;6.978;2023-01-04T07:17:47;100359.75;;;12.91;99.18
2339;BME280;1180;51.438;6.978;2023-01-04T07:20:12;100350.88;;;12.69;100.00
2339;BME280;1180;51.438;6.978;2023-01-04T07:22:37;100351.59;;;12.71;100.00
2339;BME280;1180;51.438;6.978;2023-01-04T07:25:03;100341.84;;;12.77;100.00
2339;BME280;1180;51.438;6.978;2023-01-04T07:27:29;100344.59;;;12.86;100.00
2339;BME280;1180;51.438;6.978;2023-01-04T07:29:54;100357.78;;;12.95;100.00
2339;BME280;1180;51.438;6.978;2023-01-04T07:32:19;100347.16;;;12.86;99.49
2339;BME280;1180;51.438;6.978;2023-01-04T07:34:45;100358.19;;;13.02;99.84
2339;BME280;1180;51.438;6.978;2023-01-04T07:37:10;100359.75;;;13.04;99.42
2339;BME280;1180;51.438;6.978;2023-01-04T07:39:37;100374.25;;;13.05;99.04
2339;BME280;1180;51.438;6.978;2023-01-04T07:42:02;100359.53;;;13.07;99.52
2339;BME280;1180;51.438;6.978;2023-01-04T07:44:28;100360.16;;;13.11;99.17
2339;BME280;1180;51.438;6.978;2023-01-04T07:46:53;100351.09;;;13.05;99.93
2339;BME280;1180;51.438;6.978;2023-01-04T07:49:19;100345.81;;;13.07;99.25
2339;BME280;1180;51.438;6.978;2023-01-04T07:51:46;100339.41;;;13.12;99.24
2339;BME280;1180;51.438;6.978;2023-01-04T07:54:14;100328.91;;;13.15;99.02
2339;BME280;1180;51.438;6.978;2023-01-04T07:56:39;100324.16;;;13.22;98.33
2339;BME280;1180;51.438;6.978;2023-01-04T07:59:06;100335.59;;;13.31;97.31
2339;BME280;1180;51.438;6.978;2023-01-04T08:01:32;100340.03;;;13.16;98.87
2339;BME280;1180;51.438;6.978;2023-01-04T08:04:03;100329.31;;;13.22;98.18
2339;BME280;1180;51.438;6.978;2023-01-04T08:06:30;100324.25;;;13.21;98.06
2339;BME280;1180;51.438;6.978;2023-01-04T08:08:56;100337.97;;;13.08;99.65
2339;BME280;1180;51.438;6.978;2023-01-04T08:11:22;100326.97;;;13.06;99.48
2339;BME280;1180;51.438;6.978;2023-01-04T08:13:49;100314.50;;;13.13;99.92
2339;BME280;1180;51.438;6.978;2023-01-04T08:16:26;100319.81;;;13.23;98.53
2339;BME280;1180;51.438;6.978;2023-01-04T08:18:59;100322.81;;;13.17;99.29
2339;BME280;1180;51.438;6.978;2023-01-04T08:21:25;100315.81;;;13.19;99.26
2339;BME280;1180;51.438;6.978;2023-01-04T08:23:52;100308.47;;;13.25;98.41
2339;BME280;1180;51.438;6.978;2023-01-04T08:26:18;100321.44;;;13.37;97.59
2339;BME280;1180;51.438;6.978;2023-01-04T08:28:45;100295.16;;;13.32;97.57
2339;BME280;1180;51.438;6.978;2023-01-04T08:31:14;100299.63;;;13.17;98.54
2339;BME280;1180;51.438;6.978;2023-01-04T08:33:41;100298.59;;;13.19;99.01
2339;BME280;1180;51.438;6.978;2023-01-04T08:36:18;100309.13;;;13.16;99.11
2339;BME280;1180;51.438;6.978;2023-01-04T08:38:45;100286.44;;;13.21;98.31
2339;BME280;1180;51.438;6.978;2023-01-04T08:41:11;100282.94;;;13.22;98.98
2339;BME280;1180;51.438;6.978;2023-01-04T08:43:36;100294.75;;;13.25;98.87
2339;BME280;1180;51.438;6.978;2023-01-04T08:46:03;100292.84;;;13.53;96.59
2339;BME280;1180;51.438;6.978;2023-01-04T08:48:30;100299.88;;;13.38;97.51
2339;BME280;1180;51.438;6.978;2023-01-04T08:51:05;100280.69;;;13.42;97.64
2339;BME280;1180;51.438;6.978;2023-01-04T08:53:31;100278.31;;;13.39;98.08
2339;BME280;1180;51.438;6.978;2023-01-04T08:55:57;100279.25;;;13.51;97.48
2339;BME280;1180;51.438;6.978;2023-01-04T08:58:25;100275.03;;;13.50;97.23
2339;BME280;1180;51.438;6.978;2023-01-04T09:00:51;100276.16;;;13.46;97.52
2339;BME280;1180;51.438;6.978;2023-01-04T09:03:16;100284.97;;;13.43;98.65
2339;BME280;1180;51.438;6.978;2023-01-04T09:05:42;100286.75;;;13.54;97.64
2339;BME280;1180;51.438;6.978;2023-01-04T09:08:08;100281.91;;;13.62;97.65
2339;BME280;1180;51.438;6.978;2023-01-04T09:10:38;100285.22;;;13.51;98.82
2339;BME280;1180;51.438;6.978;2023-01-04T09:13:04;100274.91;;;13.51;98.71
2339;BME280;1180;51.438;6.978;2023-01-04T09:15:30;100286.47;;;13.46;99.27
2339;BME280;1180;51.438;6.978;2023-01-04T09:17:56;100284.97;;;13.43;99.10
2339;BME280;1180;51.438;6.978;2023-01-04T09:20:21;100268.56;;;13.44;100.00
2339;BME280;1180;51.438;6.978;2023-01-04T09:22:46;100290.03;;;13.56;99.55
2339;BME280;1180;51.438;6.978;2023-01-04T09:25:12;100275.25;;;13.34;100.00
2339;BME280;1180;51.438;6.978;2023-01-04T09:27:37;100278.66;;;13.47;100.00
2339;BME280;1180;51.438;6.978;2023-01-04T09:30:07;100285.78;;;13.43;100.00
2339;BME280;1180;51.438;6.978;2023-01-04T09:32:32;100283.69;;;13.36;100.00
2339;BME280;1180;51.438;6.978;2023-01-04T09:34:58;100285.03;;;13.41;100.00
2339;BME280;1180;51.438;6.978;2023-01-04T09:37:23;100281.53;;;13.42;100.00
2339;BME280;1180;51.438;6.978;2023-01-04T09:39:49;100284.31;;;13.39;100.00
2339;BME280;1180;51.438;6.978;2023-01-04T09:42:15;100286.84;;;13.65;100.00
2339;BME280;1180;51.438;6.978;2023-01-04T09:44:46;100278.47;;;13.62;100.00
2339;BME280;1180;51.438;6.978;2023-01-04T09:47:36;100276.97;;;13.59;100.00
2339;BME280;1180;51.438;6.978;2023-01-04T09:50:21;100275.63;;;13.53;100.00
2339;BME280;1180;51.438;6.978;2023-01-04T09:55:22;100287.69;;;13.40;100.00
2339;BME280;1180;51.438;6.978;2023-01-04T09:57:51;100286.63;;;13.31;100.00
2339;BME280;1180;51.438;6.978;2023-01-04T10:00:22;100266.78;;;13.45;100.00
2339;BME280;1180;51.438;6.978;2023-01-04T10:05:32;100295.56;;;13.38;100.00
2339;BME280;1180;51.438;6.978;2023-01-04T10:07:58;100297.00;;;13.42;100.00
2339;BME280;1180;51.438;6.978;2023-01-04T10:10:39;100288.25;;;13.45;100.00
2339;BME280;1180;51.438;6.978;2023-01-04T10:13:26;100285.09;;;13.53;100.00
2339;BME280;1180;51.438;6.978;2023-01-04T10:16:04;100285.09;;;13.53;100.00
2339;BME280;1180;51.438;6.978;2023-01-04T10:21:22;100285.72;;;13.56;100.00
2339;BME280;1180;51.438;6.978;2023-01-04T10:26:30;100284.97;;;13.43;100.00
2339;BME280;1180;51.438;6.978;2023-01-04T10:29:02;100272.34;;;13.51;100.00
2339;BME280;1180;51.438;6.978;2023-01-04T10:31:36;100273.00;;;13.66;100.00
2339;BME280;1180;51.438;6.978;2023-01-04T10:34:27;100270.31;;;13.43;100.00
2339;BME280;1180;51.438;6.978;2023-01-04T10:37:00;100265.31;;;13.53;100.00
2339;BME280;1180;51.438;6.978;2023-01-04T10:39:31;100262.53;;;13.56;100.00
2339;BME280;1180;51.438;6.978;2023-01-04T10:42:15;100263.56;;;13.54;100.00
2339;BME280;1180;51.438;6.978;2023-01-04T10:47:55;100242.38;;;13.62;100.00
2339;BME280;1180;51.438;6.978;2023-01-04T10:50:30;100247.59;;;13.49;100.00
2339;BME280;1180;51.438;6.978;2023-01-04T10:53:26;100257.09;;;13.48;100.00
2339;BME280;1180;51.438;6.978;2023-01-04T10:56:03;100254.00;;;13.67;100.00
2339;BME280;1180;51.438;6.978;2023-01-04T10:58:47;100240.66;;;13.74;100.00
2339;BME280;1180;51.438;6.978;2023-01-04T11:01:38;100253.31;;;13.65;100.00
2339;BME280;1180;51.438;6.978;2023-01-04T11:04:16;100245.09;;;13.60;100.00
2339;BME280;1180;51.438;6.978;2023-01-04T11:07:04;100233.53;;;13.53;100.00
2339;BME280;1180;51.438;6.978;2023-01-04T11:09:43;100221.84;;;13.84;100.00
2339;BME280;1180;51.438;6.978;2023-01-04T11:12:12;100223.81;;;13.81;100.00
2339;BME280;1180;51.438;6.978;2023-01-04T11:14:39;100219.34;;;13.71;100.00
2339;BME280;1180;51.438;6.978;2023-01-04T11:17:06;100214.78;;;13.51;100.00
2339;BME280;1180;51.438;6.978;2023-01-04T11:19:33;100217.66;;;13.59;100.00
2339;BME280;1180;51.438;6.978;2023-01-04T11:22:14;100208.84;;;13.62;100.00
2339;BME280;1180;51.438;6.978;2023-01-04T11:24:41;100212.75;;;13.67;100.00
2339;BME280;1180;51.438;6.978;2023-01-04T11:27:18;100199.66;;;13.82;100.00
2339;BME280;1180;51.438;6.978;2023-01-04T11:29:53;100206.22;;;13.86;100.00
2339;BME280;1180;51.438;6.978;2023-01-04T11:32:57;100208.34;;;13.81;100.00
2339;BME280;1180;51.438;6.978;2023-01-04T11:35:45;100201.84;;;13.75;100.00
2339;BME280;1180;51.438;6.978;2023-01-04T11:38:15;100198.69;;;13.71;100.00
2339;BME280;1180;51.438;6.978;2023-01-04T11:40:59;100199.06;;;13.78;100.00
2339;BME280;1180;51.438;6.978;2023-01-04T11:43:28;100194.72;;;13.79;100.00
2339;BME280;1180;51.438;6.978;2023-01-04T11:48:35;100190.66;;;13.88;100.00
2339;BME280;1180;51.438;6.978;2023-01-04T11:51:02;100197.44;;;13.77;100.00
2339;BME280;1180;51.438;6.978;2023-01-04T11:53:33;100182.03;;;13.64;100.00
2339;BME280;1180;51.438;6.978;2023-01-04T11:56:20;100194.97;;;13.76;100.00
2339;BME280;1180;51.438;6.978;2023-01-04T12:01:33;100176.91;;;13.76;100.00
2339;BME280;1180;51.438;6.978;2023-01-04T12:03:58;100179.47;;;13.64;100.00
2339;BME280;1180;51.438;6.978;2023-01-04T12:09:28;100174.00;;;13.92;100.00
2339;BME280;1180;51.438;6.978;2023-01-04T12:11:57;100167.56;;;13.97;100.00
2339;BME280;1180;51.438;6.978;2023-01-04T12:14:25;100180.09;;;13.91;100.00
2339;BME280;1180;51.438;6.978;2023-01-04T12:17:15;100169.78;;;13.91;100.00
2339;BME280;1180;51.438;6.978;2023-01-04T12:19:43;100178.38;;;14.03;100.00
2339;BME280;1180;51.438;6.978;2023-01-04T12:22:34;100174.63;;;13.95;100.00
2339;BME280;1180;51.438;6.978;2023-01-04T12:25:01;100166.97;;;13.82;100.00
2339;BME280;1180;51.438;6.978;2023-01-04T12:27:27;100171.19;;;13.83;100.00
2339;BME280;1180;51.438;6.978;2023-01-04T12:34:47;100181.50;;;13.83;100.00
2339;BME280;1180;51.438;6.978;2023-01-04T12:45:43;100157.44;;;13.83;100.00
2339;BME280;1180;51.438;6.978;2023-01-04T12:51:17;100156.88;;;13.91;100.00
2339;BME280;1180;51.438;6.978;2023-01-04T12:53:54;100142.72;;;13.96;100.00
2339;BME280;1180;51.438;6.978;2023-01-04T12:56:20;100147.59;;;13.77;100.00
2339;BME280;1180;51.438;6.978;2023-01-04T12:59:09;100146.41;;;13.69;100.00
2339;BME280;1180;51.438;6.978;2023-01-04T13:01:36;100165.56;;;13.78;100.00
2339;BME280;1180;51.438;6.978;2023-01-04T13:04:26;100162.38;;;13.86;100.00
2339;BME280;1180;51.438;6.978;2023-01-04T13:06:52;100165.41;;;13.80;100.00
2339;BME280;1180;51.438;6.978;2023-01-04T13:09:19;100159.47;;;13.79;100.00
2339;BME280;1180;51.438;6.978;2023-01-04T13:12:07;100144.22;;;13.88;100.00
2339;BME280;1180;51.438;6.978;2023-01-04T13:14:46;100166.13;;;13.82;100.00
2339;BME280;1180;51.438;6.978;2023-01-04T13:17:17;100163.69;;;13.80;100.00
2339;BME280;1180;51.438;6.978;2023-01-04T13:19:43;100155.84;;;13.93;100.00
2339;BME280;1180;51.438;6.978;2023-01-04T13:22:21;100162.75;;;14.04;100.00
2339;BME280;1180;51.438;6.978;2023-01-04T13:24:49;100171.19;;;14.06;100.00
2339;BME280;1180;51.438;6.978;2023-01-04T13:27:16;100165.44;;;13.91;100.00
2339;BME280;1180;51.438;6.978;2023-01-04T13:29:42;100160.78;;;14.08;100.00
2339;BME280;1180;51.438;6.978;2023-01-04T13:32:08;100158.19;;;14.19;100.00
2339;BME280;1180;51.438;6.978;2023-01-04T13:34:40;100163.13;;;14.22;100.00
2339;BME280;1180;51.438;6.978;2023-01-04T13:42:10;100149.53;;;14.32;100.00
2339;BME280;1180;51.438;6.978;2023-01-04T13:45:00;100147.63;;;14.11;100.00
2339;BME280;1180;51.438;6.978;2023-01-04T13:47:34;100140.84;;;14.10;100.00
2339;BME280;1180;51.438;6.978;2023-01-04T13:50:01;100142.72;;;14.19;100.00
2339;BME280;1180;51.438;6.978;2023-01-04T13:52:28;100138.72;;;14.04;100.00
2339;BME280;1180;51.438;6.978;2023-01-04T13:55:25;100143.66;;;14.07;100.00
2339;BME280;1180;51.438;6.978;2023-01-04T13:58:05;100122.19;;;14.06;100.00
2339;BME280;1180;51.438;6.978;2023-01-04T14:00:34;100110.72;;;14.10;100.00
2339;BME280;1180;51.438;6.978;2023-01-04T14:05:36;100128.16;;;14.07;100.00
2339;BME280;1180;51.438;6.978;2023-01-04T14:08:08;100132.16;;;14.22;100.00
2339;BME280;1180;51.438;6.978;2023-01-04T14:10:35;100119.13;;;14.24;100.00
2339;BME280;1180;51.438;6.978;2023-01-04T14:13:02;100123.84;;;14.19;100.00
2339;BME280;1180;51.438;6.978;2023-01-04T14:15:28;100118.56;;;14.09;100.00
2339;BME280;1180;51.438;6.978;2023-01-04T14:17:57;100121.22;;;14.07;100.00
2339;BME280;1180;51.438;6.978;2023-01-04T14:22:49;100118.19;;;14.25;100.00
2339;BME280;1180;51.438;6.978;2023-01-04T14:25:37;100110.94;;;14.19;100.00
2339;BME280;1180;51.438;6.978;2023-01-04T14:38:47;100105.66;;;14.32;100.00